首页
METAR-TAF:

METAR-TAF

机场 :

Wausau, 威斯康辛州, 美国

纬度: 44-55-43N, 经度: 089-37-36W, 海拔: 366米

当前天气观测

该预报发布于11分钟前的08:54 UTC
风速6节,风向西转西北
温度 16°C
湿度 77%
气压 1013 hPa
能見度: 16.1公里
天空无云

METAR: KAUW 260854Z AUTO 30006KT 10SM CLR 16/12 A2992 RMK AO2 SLP131 T01560122 53009

时间: 04:05 (09:05 UTC)

预报

该预报发布于3小时和45分钟前的05:20 UTC
预报有效从26日的 06点(UTC)到 27日的 06点(UTC)
风速5节,风向西
能見度: 10公里
少量云层高于6000英尺
从 26日的 1600点(UTC)
风速9节,风向西
能見度: 10公里
散云层高于4500英尺
从 26日的 2300点(UTC)
风速7节,风向西转西南
能見度: 10公里
散云层高于9000英尺

TAF: KAUW 260520Z 2606/2706 27005KT P6SM FEW060 FM261600 27009KT P6SM SCT045 FM262300 24007KT P6SM SCT090

超过4000个机场的气象观测和天气预报(METAR&TAF报告)。

可查询的气象台以黄色和红色小点在地图上表示。

将鼠标移到小点上方,可查看气象台名称。

然后点击查看天气观测和预报。

如需切换地图:点击带黑十字的绿色按钮放大地图;点击带横线的绿色按钮缩小地图;或者点击绿色箭头查看邻近地区的地图。


METAR-TAF: